sensor_id;sensor_type;location;lat;lon;timestamp;P1;durP1;ratioP1;P2;durP2;ratioP2
33987;SDS011;37428;53.580;-1.666;2022-10-16T00:02:07;10.27;;;2.67;;
33987;SDS011;37428;53.580;-1.666;2022-10-16T00:05:09;5.53;;;1.13;;
33987;SDS011;37428;53.580;-1.666;2022-10-16T00:08:13;12.90;;;1.40;;
33987;SDS011;37428;53.580;-1.666;2022-10-16T00:11:15;10.10;;;1.48;;
33987;SDS011;37428;53.580;-1.666;2022-10-16T00:14:18;12.13;;;1.52;;
33987;SDS011;37428;53.580;-1.666;2022-10-16T00:17:21;8.20;;;1.90;;
33987;SDS011;37428;53.580;-1.666;2022-10-16T00:20:23;7.38;;;1.92;;
33987;SDS011;37428;53.580;-1.666;2022-10-16T00:23:26;10.07;;;1.55;;
33987;SDS011;37428;53.580;-1.666;2022-10-16T00:26:29;11.77;;;1.55;;
33987;SDS011;37428;53.580;-1.666;2022-10-16T00:29:32;9.35;;;1.25;;
33987;SDS011;37428;53.580;-1.666;2022-10-16T00:32:35;8.57;;;1.25;;
33987;SDS011;37428;53.580;-1.666;2022-10-16T00:35:37;9.25;;;1.77;;
33987;SDS011;37428;53.580;-1.666;2022-10-16T00:38:40;6.88;;;1.40;;
33987;SDS011;37428;53.580;-1.666;2022-10-16T00:41:42;10.70;;;2.42;;
33987;SDS011;37428;53.580;-1.666;2022-10-16T00:44:46;9.30;;;1.48;;
33987;SDS011;37428;53.580;-1.666;2022-10-16T00:47:52;8.75;;;1.42;;
33987;SDS011;37428;53.580;-1.666;2022-10-16T00:50:56;9.77;;;1.40;;
33987;SDS011;37428;53.580;-1.666;2022-10-16T00:54:01;13.38;;;1.90;;
33987;SDS011;37428;53.580;-1.666;2022-10-16T00:57:05;9.63;;;1.58;;
33987;SDS011;37428;53.580;-1.666;2022-10-16T01:00:09;14.63;;;2.38;;
33987;SDS011;37428;53.580;-1.666;2022-10-16T01:03:24;10.38;;;3.15;;
33987;SDS011;37428;53.580;-1.666;2022-10-16T01:06:29;13.73;;;1.92;;
33987;SDS011;37428;53.580;-1.666;2022-10-16T01:09:44;17.50;;;2.08;;
33987;SDS011;37428;53.580;-1.666;2022-10-16T01:12:54;8.85;;;2.25;;
33987;SDS011;37428;53.580;-1.666;2022-10-16T01:16:00;8.52;;;1.48;;
33987;SDS011;37428;53.580;-1.666;2022-10-16T01:19:09;15.82;;;2.10;;
33987;SDS011;37428;53.580;-1.666;2022-10-16T01:22:18;8.77;;;2.25;;
33987;SDS011;37428;53.580;-1.666;2022-10-16T01:25:29;10.23;;;3.00;;
33987;SDS011;37428;53.580;-1.666;2022-10-16T01:29:09;9.52;;;1.48;;
33987;SDS011;37428;53.580;-1.666;2022-10-16T01:32:20;8.88;;;1.33;;
33987;SDS011;37428;53.580;-1.666;2022-10-16T01:35:29;8.75;;;1.33;;
33987;SDS011;37428;53.580;-1.666;2022-10-16T01:38:34;11.35;;;2.83;;
33987;SDS011;37428;53.580;-1.666;2022-10-16T01:41:38;7.80;;;1.77;;
33987;SDS011;37428;53.580;-1.666;2022-10-16T01:44:45;10.20;;;1.50;;
33987;SDS011;37428;53.580;-1.666;2022-10-16T01:47:49;13.20;;;1.90;;
33987;SDS011;37428;53.580;-1.666;2022-10-16T01:50:54;9.68;;;1.50;;
33987;SDS011;37428;53.580;-1.666;2022-10-16T01:53:59;9.95;;;1.25;;
33987;SDS011;37428;53.580;-1.666;2022-10-16T01:57:02;6.10;;;0.90;;
33987;SDS011;37428;53.580;-1.666;2022-10-16T02:00:09;6.60;;;1.05;;
33987;SDS011;37428;53.580;-1.666;2022-10-16T02:03:14;10.95;;;1.70;;
33987;SDS011;37428;53.580;-1.666;2022-10-16T02:06:19;6.72;;;0.73;;
33987;SDS011;37428;53.580;-1.666;2022-10-16T02:09:22;6.13;;;1.00;;
33987;SDS011;37428;53.580;-1.666;2022-10-16T02:12:26;7.75;;;1.13;;
33987;SDS011;37428;53.580;-1.666;2022-10-16T02:15:32;8.60;;;1.13;;
33987;SDS011;37428;53.580;-1.666;2022-10-16T02:18:34;8.48;;;1.85;;
33987;SDS011;37428;53.580;-1.666;2022-10-16T02:21:38;9.88;;;1.55;;
33987;SDS011;37428;53.580;-1.666;2022-10-16T02:24:47;8.80;;;1.48;;
33987;SDS011;37428;53.580;-1.666;2022-10-16T02:27:56;9.88;;;2.08;;
33987;SDS011;37428;53.580;-1.666;2022-10-16T02:31:04;10.07;;;2.05;;
33987;SDS011;37428;53.580;-1.666;2022-10-16T02:34:11;9.30;;;1.55;;
33987;SDS011;37428;53.580;-1.666;2022-10-16T02:37:15;8.02;;;1.10;;
33987;SDS011;37428;53.580;-1.666;2022-10-16T02:40:19;9.88;;;1.73;;
33987;SDS011;37428;53.580;-1.666;2022-10-16T02:43:21;11.25;;;1.40;;
33987;SDS011;37428;53.580;-1.666;2022-10-16T02:49:27;5.93;;;0.85;;
33987;SDS011;37428;53.580;-1.666;2022-10-16T02:52:29;8.68;;;1.23;;
33987;SDS011;37428;53.580;-1.666;2022-10-16T02:55:31;5.28;;;1.48;;
33987;SDS011;37428;53.580;-1.666;2022-10-16T02:58:33;3.65;;;1.13;;
33987;SDS011;37428;53.580;-1.666;2022-10-16T03:01:37;7.30;;;1.27;;
33987;SDS011;37428;53.580;-1.666;2022-10-16T03:04:39;9.48;;;1.30;;
33987;SDS011;37428;53.580;-1.666;2022-10-16T03:07:41;6.57;;;1.45;;
33987;SDS011;37428;53.580;-1.666;2022-10-16T03:10:43;4.63;;;1.23;;
33987;SDS011;37428;53.580;-1.666;2022-10-16T03:13:45;4.10;;;1.85;;
33987;SDS011;37428;53.580;-1.666;2022-10-16T03:16:49;5.53;;;1.92;;
33987;SDS011;37428;53.580;-1.666;2022-10-16T03:19:51;5.47;;;2.05;;
33987;SDS011;37428;53.580;-1.666;2022-10-16T03:22:53;5.55;;;1.65;;
33987;SDS011;37428;53.580;-1.666;2022-10-16T03:25:55;10.88;;;1.98;;
33987;SDS011;37428;53.580;-1.666;2022-10-16T03:28:57;7.43;;;1.60;;
33987;SDS011;37428;53.580;-1.666;2022-10-16T03:32:01;6.28;;;1.30;;
33987;SDS011;37428;53.580;-1.666;2022-10-16T03:35:03;11.48;;;3.00;;
33987;SDS011;37428;53.580;-1.666;2022-10-16T03:38:06;3.03;;;1.42;;
33987;SDS011;37428;53.580;-1.666;2022-10-16T03:41:08;3.10;;;1.50;;
33987;SDS011;37428;53.580;-1.666;2022-10-16T03:44:10;6.22;;;1.63;;
33987;SDS011;37428;53.580;-1.666;2022-10-16T03:47:14;7.57;;;2.45;;
33987;SDS011;37428;53.580;-1.666;2022-10-16T03:50:20;6.68;;;1.98;;
33987;SDS011;37428;53.580;-1.666;2022-10-16T03:53:22;3.53;;;1.42;;
33987;SDS011;37428;53.580;-1.666;2022-10-16T03:56:24;4.88;;;1.58;;
33987;SDS011;37428;53.580;-1.666;2022-10-16T03:59:27;9.02;;;2.22;;
33987;SDS011;37428;53.580;-1.666;2022-10-16T04:02:30;7.72;;;1.88;;
33987;SDS011;37428;53.580;-1.666;2022-10-16T04:05:32;6.97;;;1.55;;
33987;SDS011;37428;53.580;-1.666;2022-10-16T04:08:34;4.13;;;1.92;;
33987;SDS011;37428;53.580;-1.666;2022-10-16T04:11:37;5.50;;;1.45;;
33987;SDS011;37428;53.580;-1.666;2022-10-16T04:14:39;4.90;;;1.23;;
33987;SDS011;37428;53.580;-1.666;2022-10-16T04:17:42;1.80;;;1.08;;
33987;SDS011;37428;53.580;-1.666;2022-10-16T04:20:44;7.35;;;1.30;;
33987;SDS011;37428;53.580;-1.666;2022-10-16T04:23:46;6.45;;;1.67;;
33987;SDS011;37428;53.580;-1.666;2022-10-16T04:29:51;4.00;;;1.10;;
33987;SDS011;37428;53.580;-1.666;2022-10-16T04:32:54;4.07;;;0.75;;
33987;SDS011;37428;53.580;-1.666;2022-10-16T04:35:57;4.40;;;0.90;;
33987;SDS011;37428;53.580;-1.666;2022-10-16T04:42:01;4.78;;;0.63;;
33987;SDS011;37428;53.580;-1.666;2022-10-16T04:45:04;7.30;;;1.63;;
33987;SDS011;37428;53.580;-1.666;2022-10-16T04:48:08;6.47;;;1.00;;
33987;SDS011;37428;53.580;-1.666;2022-10-16T04:51:11;4.15;;;0.95;;
33987;SDS011;37428;53.580;-1.666;2022-10-16T04:54:12;6.10;;;1.17;;
33987;SDS011;37428;53.580;-1.666;2022-10-16T04:57:14;6.32;;;0.70;;
33987;SDS011;37428;53.580;-1.666;2022-10-16T05:00:17;5.55;;;1.10;;
33987;SDS011;37428;53.580;-1.666;2022-10-16T05:03:20;2.83;;;1.00;;
33987;SDS011;37428;53.580;-1.666;2022-10-16T05:06:22;8.68;;;1.30;;
33987;SDS011;37428;53.580;-1.666;2022-10-16T05:09:24;4.63;;;0.75;;
33987;SDS011;37428;53.580;-1.666;2022-10-16T05:12:26;3.78;;;0.60;;
33987;SDS011;37428;53.580;-1.666;2022-10-16T05:15:28;4.70;;;0.88;;
33987;SDS011;37428;53.580;-1.666;2022-10-16T05:18:32;8.07;;;0.80;;
33987;SDS011;37428;53.580;-1.666;2022-10-16T05:21:34;5.32;;;0.80;;
33987;SDS011;37428;53.580;-1.666;2022-10-16T05:24:36;8.75;;;1.13;;
33987;SDS011;37428;53.580;-1.666;2022-10-16T05:27:38;6.25;;;1.00;;
33987;SDS011;37428;53.580;-1.666;2022-10-16T05:30:41;4.85;;;0.93;;
33987;SDS011;37428;53.580;-1.666;2022-10-16T05:33:44;5.22;;;1.23;;
33987;SDS011;37428;53.580;-1.666;2022-10-16T05:36:46;6.10;;;0.75;;
33987;SDS011;37428;53.580;-1.666;2022-10-16T05:39:48;5.72;;;0.85;;
33987;SDS011;37428;53.580;-1.666;2022-10-16T05:42:54;5.65;;;1.55;;
33987;SDS011;37428;53.580;-1.666;2022-10-16T05:45:57;4.45;;;1.23;;
33987;SDS011;37428;53.580;-1.666;2022-10-16T05:49:02;1.58;;;0.60;;
33987;SDS011;37428;53.580;-1.666;2022-10-16T05:52:04;3.42;;;0.63;;
33987;SDS011;37428;53.580;-1.666;2022-10-16T05:55:07;3.45;;;0.80;;
33987;SDS011;37428;53.580;-1.666;2022-10-16T05:58:09;2.95;;;0.60;;
33987;SDS011;37428;53.580;-1.666;2022-10-16T06:01:12;4.18;;;0.50;;
33987;SDS011;37428;53.580;-1.666;2022-10-16T06:04:17;5.15;;;0.57;;
33987;SDS011;37428;53.580;-1.666;2022-10-16T06:07:19;4.05;;;0.40;;
33987;SDS011;37428;53.580;-1.666;2022-10-16T06:10:21;5.85;;;0.63;;
33987;SDS011;37428;53.580;-1.666;2022-10-16T06:13:23;3.63;;;0.73;;
33987;SDS011;37428;53.580;-1.666;2022-10-16T06:16:25;4.22;;;0.50;;
33987;SDS011;37428;53.580;-1.666;2022-10-16T06:19:29;4.72;;;0.65;;
33987;SDS011;37428;53.580;-1.666;2022-10-16T06:22:31;4.18;;;0.80;;
33987;SDS011;37428;53.580;-1.666;2022-10-16T06:25:33;2.08;;;1.10;;
33987;SDS011;37428;53.580;-1.666;2022-10-16T06:28:36;1.58;;;0.60;;
33987;SDS011;37428;53.580;-1.666;2022-10-16T06:31:38;2.20;;;0.70;;
33987;SDS011;37428;53.580;-1.666;2022-10-16T06:34:41;3.65;;;0.70;;
33987;SDS011;37428;53.580;-1.666;2022-10-16T06:37:44;1.77;;;0.63;;
33987;SDS011;37428;53.580;-1.666;2022-10-16T06:40:46;3.90;;;1.98;;
33987;SDS011;37428;53.580;-1.666;2022-10-16T06:46:50;2.35;;;0.75;;
33987;SDS011;37428;53.580;-1.666;2022-10-16T06:49:54;3.47;;;0.80;;
33987;SDS011;37428;53.580;-1.666;2022-10-16T06:52:56;2.28;;;0.45;;
33987;SDS011;37428;53.580;-1.666;2022-10-16T06:56:05;6.72;;;0.50;;
33987;SDS011;37428;53.580;-1.666;2022-10-16T06:59:08;5.38;;;0.85;;
33987;SDS011;37428;53.580;-1.666;2022-10-16T07:02:10;3.53;;;1.00;;
33987;SDS011;37428;53.580;-1.666;2022-10-16T07:05:14;5.45;;;0.55;;
33987;SDS011;37428;53.580;-1.666;2022-10-16T07:08:16;4.72;;;0.70;;
33987;SDS011;37428;53.580;-1.666;2022-10-16T07:11:19;5.28;;;0.77;;
33987;SDS011;37428;53.580;-1.666;2022-10-16T07:14:23;5.13;;;0.57;;
33987;SDS011;37428;53.580;-1.666;2022-10-16T07:17:25;3.53;;;0.65;;
33987;SDS011;37428;53.580;-1.666;2022-10-16T07:20:28;3.50;;;0.60;;
33987;SDS011;37428;53.580;-1.666;2022-10-16T07:23:30;3.80;;;0.95;;
33987;SDS011;37428;53.580;-1.666;2022-10-16T07:26:33;4.38;;;0.90;;
33987;SDS011;37428;53.580;-1.666;2022-10-16T07:29:39;4.43;;;0.55;;
33987;SDS011;37428;53.580;-1.666;2022-10-16T07:32:41;3.92;;;0.95;;
33987;SDS011;37428;53.580;-1.666;2022-10-16T07:35:51;2.30;;;0.55;;
33987;SDS011;37428;53.580;-1.666;2022-10-16T07:38:54;6.13;;;0.82;;
33987;SDS011;37428;53.580;-1.666;2022-10-16T07:41:56;5.75;;;0.70;;
33987;SDS011;37428;53.580;-1.666;2022-10-16T07:44:58;2.25;;;0.50;;
33987;SDS011;37428;53.580;-1.666;2022-10-16T07:48:00;10.23;;;0.65;;
33987;SDS011;37428;53.580;-1.666;2022-10-16T07:51:04;1.60;;;1.15;;
33987;SDS011;37428;53.580;-1.666;2022-10-16T07:54:08;5.00;;;0.75;;
33987;SDS011;37428;53.580;-1.666;2022-10-16T07:57:10;3.00;;;0.47;;
33987;SDS011;37428;53.580;-1.666;2022-10-16T08:00:18;3.80;;;0.50;;
33987;SDS011;37428;53.580;-1.666;2022-10-16T08:03:20;5.32;;;0.80;;
33987;SDS011;37428;53.580;-1.666;2022-10-16T08:06:24;7.47;;;0.98;;
33987;SDS011;37428;53.580;-1.666;2022-10-16T08:09:26;3.67;;;0.40;;
33987;SDS011;37428;53.580;-1.666;2022-10-16T08:12:28;5.53;;;1.95;;
33987;SDS011;37428;53.580;-1.666;2022-10-16T08:15:30;6.30;;;1.00;;
33987;SDS011;37428;53.580;-1.666;2022-10-16T08:18:33;4.95;;;0.70;;
33987;SDS011;37428;53.580;-1.666;2022-10-16T08:21:37;3.40;;;0.60;;
33987;SDS011;37428;53.580;-1.666;2022-10-16T08:24:39;9.10;;;0.80;;
33987;SDS011;37428;53.580;-1.666;2022-10-16T08:27:42;9.02;;;1.38;;
33987;SDS011;37428;53.580;-1.666;2022-10-16T08:33:46;4.22;;;0.63;;
33987;SDS011;37428;53.580;-1.666;2022-10-16T08:36:52;5.90;;;0.75;;
33987;SDS011;37428;53.580;-1.666;2022-10-16T08:39:54;6.40;;;0.57;;
33987;SDS011;37428;53.580;-1.666;2022-10-16T08:43:00;4.35;;;0.77;;
33987;SDS011;37428;53.580;-1.666;2022-10-16T08:46:24;4.80;;;1.15;;
33987;SDS011;37428;53.580;-1.666;2022-10-16T08:49:35;5.78;;;0.80;;
33987;SDS011;37428;53.580;-1.666;2022-10-16T08:52:40;5.53;;;0.50;;
33987;SDS011;37428;53.580;-1.666;2022-10-16T08:55:45;3.55;;;0.55;;
33987;SDS011;37428;53.580;-1.666;2022-10-16T08:58:51;6.45;;;0.88;;
33987;SDS011;37428;53.580;-1.666;2022-10-16T09:01:53;8.35;;;0.70;;
33987;SDS011;37428;53.580;-1.666;2022-10-16T09:08:26;5.78;;;0.70;;
33987;SDS011;37428;53.580;-1.666;2022-10-16T09:11:39;4.38;;;0.73;;
33987;SDS011;37428;53.580;-1.666;2022-10-16T09:14:54;4.32;;;0.73;;
33987;SDS011;37428;53.580;-1.666;2022-10-16T09:18:05;4.30;;;0.50;;
33987;SDS011;37428;53.580;-1.666;2022-10-16T09:24:21;1.88;;;0.47;;
33987;SDS011;37428;53.580;-1.666;2022-10-16T09:27:26;3.97;;;0.70;;
33987;SDS011;37428;53.580;-1.666;2022-10-16T09:30:28;4.25;;;0.75;;
33987;SDS011;37428;53.580;-1.666;2022-10-16T09:33:33;5.00;;;0.60;;
33987;SDS011;37428;53.580;-1.666;2022-10-16T09:36:39;1.33;;;0.40;;
33987;SDS011;37428;53.580;-1.666;2022-10-16T09:39:46;3.53;;;0.65;;
33987;SDS011;37428;53.580;-1.666;2022-10-16T09:42:49;2.80;;;0.40;;
33987;SDS011;37428;53.580;-1.666;2022-10-16T09:45:57;1.52;;;0.50;;
33987;SDS011;37428;53.580;-1.666;2022-10-16T09:49:00;5.60;;;0.98;;
33987;SDS011;37428;53.580;-1.666;2022-10-16T09:52:04;4.30;;;0.80;;
33987;SDS011;37428;53.580;-1.666;2022-10-16T09:55:14;6.75;;;0.60;;
33987;SDS011;37428;53.580;-1.666;2022-10-16T09:58:17;3.30;;;0.60;;
33987;SDS011;37428;53.580;-1.666;2022-10-16T10:01:24;5.35;;;0.60;;
33987;SDS011;37428;53.580;-1.666;2022-10-16T10:04:37;1.55;;;0.47;;
33987;SDS011;37428;53.580;-1.666;2022-10-16T10:07:42;2.17;;;0.65;;
33987;SDS011;37428;53.580;-1.666;2022-10-16T10:10:47;0.88;;;0.50;;
33987;SDS011;37428;53.580;-1.666;2022-10-16T10:13:50;4.88;;;1.20;;
33987;SDS011;37428;53.580;-1.666;2022-10-16T10:16:52;2.35;;;0.90;;
33987;SDS011;37428;53.580;-1.666;2022-10-16T10:20:15;7.78;;;0.70;;
33987;SDS011;37428;53.580;-1.666;2022-10-16T10:23:24;4.97;;;0.75;;
33987;SDS011;37428;53.580;-1.666;2022-10-16T10:26:30;4.18;;;0.52;;
33987;SDS011;37428;53.580;-1.666;2022-10-16T10:29:40;4.82;;;0.85;;
33987;SDS011;37428;53.580;-1.666;2022-10-16T10:32:52;4.22;;;0.70;;
33987;SDS011;37428;53.580;-1.666;2022-10-16T10:36:09;3.35;;;0.60;;
33987;SDS011;37428;53.580;-1.666;2022-10-16T10:39:25;4.22;;;1.10;;
33987;SDS011;37428;53.580;-1.666;2022-10-16T10:42:34;4.60;;;0.50;;
33987;SDS011;37428;53.580;-1.666;2022-10-16T10:45:43;3.55;;;1.73;;
33987;SDS011;37428;53.580;-1.666;2022-10-16T10:48:56;7.15;;;0.70;;
33987;SDS011;37428;53.580;-1.666;2022-10-16T10:52:13;3.83;;;0.50;;
33987;SDS011;37428;53.580;-1.666;2022-10-16T10:55:35;4.43;;;0.80;;
33987;SDS011;37428;53.580;-1.666;2022-10-16T10:58:54;4.03;;;0.60;;
33987;SDS011;37428;53.580;-1.666;2022-10-16T11:02:10;1.98;;;0.60;;
33987;SDS011;37428;53.580;-1.666;2022-10-16T11:05:33;3.28;;;0.70;;
33987;SDS011;37428;53.580;-1.666;2022-10-16T11:08:43;2.30;;;0.85;;
33987;SDS011;37428;53.580;-1.666;2022-10-16T11:11:50;4.30;;;0.63;;
33987;SDS011;37428;53.580;-1.666;2022-10-16T11:14:58;3.53;;;0.60;;
33987;SDS011;37428;53.580;-1.666;2022-10-16T11:18:07;4.18;;;0.57;;
33987;SDS011;37428;53.580;-1.666;2022-10-16T11:21:14;6.50;;;0.85;;
33987;SDS011;37428;53.580;-1.666;2022-10-16T11:24:20;4.03;;;0.70;;
33987;SDS011;37428;53.580;-1.666;2022-10-16T11:27:33;5.78;;;0.75;;
33987;SDS011;37428;53.580;-1.666;2022-10-16T11:30:41;4.15;;;0.90;;
33987;SDS011;37428;53.580;-1.666;2022-10-16T11:33:51;5.10;;;0.50;;
33987;SDS011;37428;53.580;-1.666;2022-10-16T11:37:02;3.33;;;0.70;;
33987;SDS011;37428;53.580;-1.666;2022-10-16T11:40:16;3.70;;;1.70;;
33987;SDS011;37428;53.580;-1.666;2022-10-16T11:43:25;5.10;;;2.80;;
33987;SDS011;37428;53.580;-1.666;2022-10-16T11:46:31;7.40;;;3.25;;
33987;SDS011;37428;53.580;-1.666;2022-10-16T11:49:37;3.53;;;1.35;;
33987;SDS011;37428;53.580;-1.666;2022-10-16T11:52:42;15.07;;;6.20;;
33987;SDS011;37428;53.580;-1.666;2022-10-16T11:55:51;13.10;;;8.55;;
33987;SDS011;37428;53.580;-1.666;2022-10-16T11:58:55;29.83;;;13.68;;
33987;SDS011;37428;53.580;-1.666;2022-10-16T12:02:04;24.58;;;10.57;;
33987;SDS011;37428;53.580;-1.666;2022-10-16T12:05:24;22.35;;;9.02;;
33987;SDS011;37428;53.580;-1.666;2022-10-16T12:08:34;12.95;;;6.22;;
33987;SDS011;37428;53.580;-1.666;2022-10-16T12:11:37;8.70;;;3.22;;
33987;SDS011;37428;53.580;-1.666;2022-10-16T12:14:40;4.72;;;0.95;;
33987;SDS011;37428;53.580;-1.666;2022-10-16T12:17:43;5.68;;;2.92;;
33987;SDS011;37428;53.580;-1.666;2022-10-16T12:20:53;3.95;;;0.70;;
33987;SDS011;37428;53.580;-1.666;2022-10-16T12:23:59;2.22;;;1.00;;
33987;SDS011;37428;53.580;-1.666;2022-10-16T12:27:05;3.85;;;1.05;;
33987;SDS011;37428;53.580;-1.666;2022-10-16T12:30:22;11.95;;;3.70;;
33987;SDS011;37428;53.580;-1.666;2022-10-16T12:33:28;2.95;;;0.90;;
33987;SDS011;37428;53.580;-1.666;2022-10-16T12:36:32;2.67;;;1.95;;
33987;SDS011;37428;53.580;-1.666;2022-10-16T12:39:36;3.38;;;0.88;;
33987;SDS011;37428;53.580;-1.666;2022-10-16T12:42:38;12.70;;;5.03;;
33987;SDS011;37428;53.580;-1.666;2022-10-16T12:45:40;6.97;;;1.55;;
33987;SDS011;37428;53.580;-1.666;2022-10-16T12:48:44;6.60;;;1.38;;
33987;SDS011;37428;53.580;-1.666;2022-10-16T12:51:48;6.63;;;1.77;;
33987;SDS011;37428;53.580;-1.666;2022-10-16T12:54:50;6.55;;;2.67;;
33987;SDS011;37428;53.580;-1.666;2022-10-16T12:57:57;17.95;;;7.15;;
33987;SDS011;37428;53.580;-1.666;2022-10-16T13:04:51;13.43;;;6.32;;
33987;SDS011;37428;53.580;-1.666;2022-10-16T13:08:17;19.83;;;8.65;;
33987;SDS011;37428;53.580;-1.666;2022-10-16T13:11:37;8.18;;;3.33;;
33987;SDS011;37428;53.580;-1.666;2022-10-16T13:15:08;3.72;;;1.02;;
33987;SDS011;37428;53.580;-1.666;2022-10-16T13:18:27;3.83;;;0.70;;
33987;SDS011;37428;53.580;-1.666;2022-10-16T13:21:46;15.85;;;6.38;;
33987;SDS011;37428;53.580;-1.666;2022-10-16T13:24:57;10.20;;;5.00;;
33987;SDS011;37428;53.580;-1.666;2022-10-16T13:28:10;6.80;;;1.38;;
33987;SDS011;37428;53.580;-1.666;2022-10-16T13:31:17;3.40;;;0.85;;
33987;SDS011;37428;53.580;-1.666;2022-10-16T13:34:21;6.93;;;3.47;;
33987;SDS011;37428;53.580;-1.666;2022-10-16T13:37:25;6.32;;;1.55;;
33987;SDS011;37428;53.580;-1.666;2022-10-16T13:40:27;4.07;;;1.65;;
33987;SDS011;37428;53.580;-1.666;2022-10-16T13:43:32;3.42;;;1.25;;
33987;SDS011;37428;53.580;-1.666;2022-10-16T13:46:36;9.40;;;1.60;;
33987;SDS011;37428;53.580;-1.666;2022-10-16T13:49:58;8.07;;;1.80;;
33987;SDS011;37428;53.580;-1.666;2022-10-16T13:53:07;5.28;;;0.90;;
33987;SDS011;37428;53.580;-1.666;2022-10-16T13:56:19;7.82;;;1.02;;
33987;SDS011;37428;53.580;-1.666;2022-10-16T13:59:25;3.80;;;0.68;;
33987;SDS011;37428;53.580;-1.666;2022-10-16T14:02:34;2.90;;;0.75;;
33987;SDS011;37428;53.580;-1.666;2022-10-16T14:05:41;1.98;;;0.57;;
33987;SDS011;37428;53.580;-1.666;2022-10-16T14:08:54;4.68;;;0.50;;
33987;SDS011;37428;53.580;-1.666;2022-10-16T14:12:08;2.42;;;0.65;;
33987;SDS011;37428;53.580;-1.666;2022-10-16T14:15:15;3.65;;;0.60;;
33987;SDS011;37428;53.580;-1.666;2022-10-16T14:18:20;1.95;;;0.43;;
33987;SDS011;37428;53.580;-1.666;2022-10-16T14:21:27;1.45;;;0.40;;
33987;SDS011;37428;53.580;-1.666;2022-10-16T14:24:39;1.67;;;0.47;;
33987;SDS011;37428;53.580;-1.666;2022-10-16T14:28:13;2.85;;;0.52;;
33987;SDS011;37428;53.580;-1.666;2022-10-16T14:31:26;4.88;;;0.80;;
33987;SDS011;37428;53.580;-1.666;2022-10-16T14:34:30;1.77;;;0.50;;
33987;SDS011;37428;53.580;-1.666;2022-10-16T14:37:35;1.95;;;0.38;;
33987;SDS011;37428;53.580;-1.666;2022-10-16T14:40:45;3.08;;;0.75;;
33987;SDS011;37428;53.580;-1.666;2022-10-16T14:43:50;0.98;;;0.25;;
33987;SDS011;37428;53.580;-1.666;2022-10-16T14:46:55;1.50;;;0.32;;
33987;SDS011;37428;53.580;-1.666;2022-10-16T14:49:59;1.63;;;0.88;;
33987;SDS011;37428;53.580;-1.666;2022-10-16T14:56:16;3.72;;;0.70;;
33987;SDS011;37428;53.580;-1.666;2022-10-16T14:59:21;3.22;;;0.75;;
33987;SDS011;37428;53.580;-1.666;2022-10-16T15:02:31;1.67;;;0.45;;
33987;SDS011;37428;53.580;-1.666;2022-10-16T15:05:34;4.90;;;1.00;;
33987;SDS011;37428;53.580;-1.666;2022-10-16T15:08:36;4.13;;;0.63;;
33987;SDS011;37428;53.580;-1.666;2022-10-16T15:11:40;1.83;;;0.50;;
33987;SDS011;37428;53.580;-1.666;2022-10-16T15:14:46;1.85;;;0.88;;
33987;SDS011;37428;53.580;-1.666;2022-10-16T15:17:48;7.97;;;4.15;;
33987;SDS011;37428;53.580;-1.666;2022-10-16T15:20:52;13.02;;;8.23;;
33987;SDS011;37428;53.580;-1.666;2022-10-16T15:23:54;19.17;;;12.50;;
33987;SDS011;37428;53.580;-1.666;2022-10-16T15:26:59;25.27;;;15.88;;
33987;SDS011;37428;53.580;-1.666;2022-10-16T15:30:01;35.97;;;23.60;;
33987;SDS011;37428;53.580;-1.666;2022-10-16T15:33:04;55.03;;;34.55;;
33987;SDS011;37428;53.580;-1.666;2022-10-16T15:36:12;51.97;;;33.28;;
33987;SDS011;37428;53.580;-1.666;2022-10-16T15:39:15;57.58;;;34.83;;
33987;SDS011;37428;53.580;-1.666;2022-10-16T15:42:19;50.15;;;30.73;;
33987;SDS011;37428;53.580;-1.666;2022-10-16T15:45:21;37.13;;;22.95;;
33987;SDS011;37428;53.580;-1.666;2022-10-16T15:48:24;25.73;;;15.95;;
33987;SDS011;37428;53.580;-1.666;2022-10-16T15:51:26;15.32;;;10.70;;
33987;SDS011;37428;53.580;-1.666;2022-10-16T15:54:29;8.80;;;5.70;;
33987;SDS011;37428;53.580;-1.666;2022-10-16T15:57:33;6.32;;;3.38;;
33987;SDS011;37428;53.580;-1.666;2022-10-16T16:00:38;5.63;;;1.92;;
33987;SDS011;37428;53.580;-1.666;2022-10-16T16:03:40;4.43;;;2.00;;
33987;SDS011;37428;53.580;-1.666;2022-10-16T16:06:42;6.13;;;2.97;;
33987;SDS011;37428;53.580;-1.666;2022-10-16T16:09:45;10.90;;;5.75;;
33987;SDS011;37428;53.580;-1.666;2022-10-16T16:12:51;10.23;;;4.20;;
33987;SDS011;37428;53.580;-1.666;2022-10-16T16:15:54;5.75;;;3.13;;
33987;SDS011;37428;53.580;-1.666;2022-10-16T16:18:56;8.10;;;1.80;;
33987;SDS011;37428;53.580;-1.666;2022-10-16T16:21:58;3.03;;;0.90;;
33987;SDS011;37428;53.580;-1.666;2022-10-16T16:25:00;4.95;;;1.73;;
33987;SDS011;37428;53.580;-1.666;2022-10-16T16:28:04;1.80;;;0.60;;
33987;SDS011;37428;53.580;-1.666;2022-10-16T16:31:07;4.05;;;1.17;;
33987;SDS011;37428;53.580;-1.666;2022-10-16T16:34:09;7.00;;;2.17;;
33987;SDS011;37428;53.580;-1.666;2022-10-16T16:37:11;5.75;;;3.90;;
33987;SDS011;37428;53.580;-1.666;2022-10-16T16:40:13;7.10;;;2.95;;
33987;SDS011;37428;53.580;-1.666;2022-10-16T16:43:17;7.85;;;4.03;;
33987;SDS011;37428;53.580;-1.666;2022-10-16T16:46:20;5.32;;;2.70;;
33987;SDS011;37428;53.580;-1.666;2022-10-16T16:49:24;3.40;;;0.98;;
33987;SDS011;37428;53.580;-1.666;2022-10-16T16:52:28;4.68;;;2.55;;
33987;SDS011;37428;53.580;-1.666;2022-10-16T16:55:30;10.23;;;3.35;;
33987;SDS011;37428;53.580;-1.666;2022-10-16T16:58:37;4.85;;;2.60;;
33987;SDS011;37428;53.580;-1.666;2022-10-16T17:01:41;5.95;;;3.10;;
33987;SDS011;37428;53.580;-1.666;2022-10-16T17:04:43;6.80;;;2.50;;
33987;SDS011;37428;53.580;-1.666;2022-10-16T17:07:45;9.57;;;5.68;;
33987;SDS011;37428;53.580;-1.666;2022-10-16T17:10:47;17.02;;;9.65;;
33987;SDS011;37428;53.580;-1.666;2022-10-16T17:13:56;17.10;;;10.18;;
33987;SDS011;37428;53.580;-1.666;2022-10-16T17:16:59;19.08;;;10.15;;
33987;SDS011;37428;53.580;-1.666;2022-10-16T17:20:02;7.68;;;5.55;;
33987;SDS011;37428;53.580;-1.666;2022-10-16T17:23:04;4.10;;;2.00;;
33987;SDS011;37428;53.580;-1.666;2022-10-16T17:26:08;5.65;;;2.88;;
33987;SDS011;37428;53.580;-1.666;2022-10-16T17:29:14;19.42;;;11.00;;
33987;SDS011;37428;53.580;-1.666;2022-10-16T17:32:17;15.80;;;10.02;;
33987;SDS011;37428;53.580;-1.666;2022-10-16T17:35:22;30.65;;;20.40;;
33987;SDS011;37428;53.580;-1.666;2022-10-16T17:38:24;17.52;;;10.02;;
33987;SDS011;37428;53.580;-1.666;2022-10-16T17:41:27;17.20;;;10.43;;
33987;SDS011;37428;53.580;-1.666;2022-10-16T17:44:33;17.48;;;12.48;;
33987;SDS011;37428;53.580;-1.666;2022-10-16T17:47:35;15.95;;;9.30;;
33987;SDS011;37428;53.580;-1.666;2022-10-16T17:50:38;10.85;;;6.18;;
33987;SDS011;37428;53.580;-1.666;2022-10-16T17:53:41;21.17;;;11.15;;
33987;SDS011;37428;53.580;-1.666;2022-10-16T17:59:48;8.85;;;5.45;;
33987;SDS011;37428;53.580;-1.666;2022-10-16T18:02:50;10.13;;;4.85;;
33987;SDS011;37428;53.580;-1.666;2022-10-16T18:05:52;11.75;;;8.10;;
33987;SDS011;37428;53.580;-1.666;2022-10-16T18:08:56;12.07;;;6.95;;
33987;SDS011;37428;53.580;-1.666;2022-10-16T18:11:59;11.82;;;6.85;;
33987;SDS011;37428;53.580;-1.666;2022-10-16T18:15:02;21.25;;;10.63;;
33987;SDS011;37428;53.580;-1.666;2022-10-16T18:18:05;91.88;;;51.67;;
33987;SDS011;37428;53.580;-1.666;2022-10-16T18:27:13;8.23;;;4.40;;
33987;SDS011;37428;53.580;-1.666;2022-10-16T18:30:17;8.50;;;3.63;;
33987;SDS011;37428;53.580;-1.666;2022-10-16T18:33:19;5.75;;;3.60;;
33987;SDS011;37428;53.580;-1.666;2022-10-16T18:36:22;6.88;;;3.75;;
33987;SDS011;37428;53.580;-1.666;2022-10-16T18:39:25;12.77;;;8.43;;
33987;SDS011;37428;53.580;-1.666;2022-10-16T18:42:28;20.50;;;9.60;;
33987;SDS011;37428;53.580;-1.666;2022-10-16T18:45:31;15.00;;;7.65;;
33987;SDS011;37428;53.580;-1.666;2022-10-16T18:48:33;15.15;;;6.25;;
33987;SDS011;37428;53.580;-1.666;2022-10-16T18:51:37;10.82;;;5.80;;
33987;SDS011;37428;53.580;-1.666;2022-10-16T18:54:41;9.02;;;3.20;;